createdAt,value
2018-02-15T00:00:03.051Z,2.20
2018-02-15T00:02:29.305Z,2.13
2018-02-15T00:04:55.766Z,1.80
2018-02-15T00:07:21.977Z,2.00
2018-02-15T00:09:48.236Z,1.93
2018-02-15T00:12:14.516Z,2.27
2018-02-15T00:14:41.089Z,2.00
2018-02-15T00:17:07.293Z,2.30
2018-02-15T00:19:33.522Z,2.10
2018-02-15T00:21:59.709Z,2.07
2018-02-15T00:24:25.937Z,1.90
2018-02-15T00:26:52.206Z,1.73
2018-02-15T00:29:18.405Z,1.80
2018-02-15T00:31:44.614Z,2.17
2018-02-15T00:34:10.868Z,2.30
2018-02-15T00:36:37.044Z,2.20
2018-02-15T00:39:03.378Z,1.97
2018-02-15T00:41:29.610Z,1.90
2018-02-15T00:43:55.809Z,2.10
2018-02-15T00:46:22.042Z,2.23
2018-02-15T00:48:48.238Z,1.83
2018-02-15T00:51:14.435Z,1.83
2018-02-15T00:53:40.700Z,1.93
2018-02-15T00:56:06.914Z,2.07
2018-02-15T00:58:33.388Z,2.00
2018-02-15T01:00:59.626Z,2.00
2018-02-15T01:03:25.828Z,1.93
2018-02-15T01:05:52.066Z,1.97
2018-02-15T01:08:18.267Z,1.97
2018-02-15T01:10:44.545Z,2.13
2018-02-15T01:13:10.756Z,1.80
2018-02-15T01:15:37.196Z,2.17
2018-02-15T01:18:03.543Z,1.90
2018-02-15T01:20:29.750Z,1.83
2018-02-15T01:22:55.954Z,2.00
2018-02-15T01:25:22.284Z,1.93
2018-02-15T01:27:48.759Z,2.20
2018-02-15T01:30:14.937Z,2.20
2018-02-15T01:32:41.178Z,1.87
2018-02-15T01:35:07.339Z,2.10
2018-02-15T01:37:33.877Z,1.73
2018-02-15T01:40:00.123Z,1.93
2018-02-15T01:42:26.334Z,2.40
2018-02-15T01:44:52.692Z,1.90
2018-02-15T01:47:18.954Z,1.70
2018-02-15T01:49:57.326Z,1.97
2018-02-15T01:52:23.815Z,2.30
2018-02-15T01:54:50.219Z,1.90
2018-02-15T01:57:16.398Z,1.70
2018-02-15T01:59:42.889Z,1.93
2018-02-15T02:02:09.366Z,1.97
2018-02-15T02:04:35.623Z,2.10
2018-02-15T02:07:01.837Z,1.97
2018-02-15T02:09:28.049Z,2.23
2018-02-15T02:11:54.356Z,1.77
2018-02-15T02:14:20.580Z,1.77
2018-02-15T02:16:46.762Z,1.90
2018-02-15T02:19:13.172Z,1.90
2018-02-15T02:21:39.359Z,1.70
2018-02-15T02:24:05.571Z,2.23
2018-02-15T02:26:31.886Z,2.03
2018-02-15T02:28:58.096Z,1.70
2018-02-15T02:31:24.549Z,1.70
2018-02-15T02:33:50.762Z,1.90
2018-02-15T02:36:16.988Z,1.60
2018-02-15T02:38:43.513Z,1.40
2018-02-15T02:41:09.726Z,1.77
2018-02-15T02:43:35.956Z,1.70
2018-02-15T02:46:02.150Z,2.00
2018-02-15T02:48:28.322Z,1.77
2018-02-15T02:50:54.551Z,1.80
2018-02-15T02:53:20.759Z,1.70
2018-02-15T02:55:46.970Z,1.80
2018-02-15T02:58:13.206Z,1.60
2018-02-15T03:00:39.424Z,1.73
2018-02-15T03:03:05.618Z,2.27
2018-02-15T03:05:31.887Z,1.97
2018-02-15T03:07:58.097Z,1.57
2018-02-15T03:10:24.292Z,1.80
2018-02-15T03:12:50.907Z,1.50
2018-02-15T03:15:17.317Z,1.73
2018-02-15T03:17:43.502Z,1.97
2018-02-15T03:20:09.761Z,2.00
2018-02-15T03:22:35.948Z,2.13
2018-02-15T03:25:02.392Z,2.17
2018-02-15T03:27:28.884Z,1.70
2018-02-15T03:29:55.093Z,1.70
2018-02-15T03:32:21.359Z,1.80
2018-02-15T03:34:47.574Z,1.50
2018-02-15T03:37:13.778Z,1.63
2018-02-15T03:39:40.034Z,2.27
2018-02-15T03:42:06.229Z,1.60
2018-02-15T03:44:32.433Z,2.00
2018-02-15T03:46:58.698Z,1.97
2018-02-15T03:49:24.962Z,2.03
2018-02-15T03:51:51.144Z,1.73
2018-02-15T03:54:17.414Z,1.90
2018-02-15T03:56:43.629Z,1.80
2018-02-15T03:59:10.157Z,1.83
2018-02-15T04:01:36.479Z,1.90
2018-02-15T04:04:02.674Z,2.10
2018-02-15T04:06:28.946Z,1.93
2018-02-15T04:08:55.484Z,1.90
2018-02-15T04:11:21.675Z,1.80
2018-02-15T04:13:48.149Z,1.80
2018-02-15T04:16:14.397Z,1.60
2018-02-15T04:18:40.685Z,1.90
2018-02-15T04:21:06.861Z,1.97
2018-02-15T04:23:33.132Z,1.90
2018-02-15T04:25:59.693Z,1.53
2018-02-15T04:28:25.912Z,1.80
2018-02-15T04:30:52.137Z,1.40
2018-02-15T04:33:18.357Z,1.50
2018-02-15T04:35:44.811Z,1.83
2018-02-15T04:38:11.077Z,2.37
2018-02-15T04:40:37.314Z,1.77
2018-02-15T04:43:03.472Z,1.57
2018-02-15T04:45:29.706Z,1.70
2018-02-15T04:47:55.896Z,1.93
2018-02-15T04:50:22.094Z,1.83
2018-02-15T04:52:48.349Z,2.20
2018-02-15T04:55:14.549Z,1.80
2018-02-15T04:57:40.753Z,1.50
2018-02-15T05:00:07.007Z,2.00
2018-02-15T05:02:33.189Z,2.07
2018-02-15T05:04:59.415Z,1.60
2018-02-15T05:07:25.617Z,1.67
2018-02-15T05:09:52.105Z,1.90
2018-02-15T05:12:18.375Z,1.60
2018-02-15T05:14:44.583Z,1.43
2018-02-15T05:17:11.044Z,1.90
2018-02-15T05:19:37.289Z,2.30
2018-02-15T05:22:03.521Z,1.70
2018-02-15T05:24:29.780Z,1.70
2018-02-15T05:26:55.981Z,1.90
2018-02-15T05:29:22.445Z,2.00
2018-02-15T05:31:48.677Z,2.00
2018-02-15T05:34:14.836Z,1.70
2018-02-15T05:36:41.011Z,1.70
2018-02-15T05:39:07.278Z,1.90
2018-02-15T05:41:33.458Z,1.73
2018-02-15T05:43:59.656Z,2.20
2018-02-15T05:46:25.893Z,1.90
2018-02-15T05:48:52.373Z,2.27
2018-02-15T05:51:18.583Z,2.17
2018-02-15T05:53:45.074Z,1.73
2018-02-15T05:56:11.565Z,1.70
2018-02-15T05:58:37.792Z,2.23
2018-02-15T06:01:03.957Z,1.80
2018-02-15T06:03:30.133Z,2.00
2018-02-15T06:05:56.381Z,2.13
2018-02-15T06:08:22.549Z,1.70
2018-02-15T06:10:48.777Z,2.27
2018-02-15T06:13:14.964Z,2.60
2018-02-15T06:15:41.146Z,2.27
2018-02-15T06:18:07.401Z,2.30
2018-02-15T06:20:33.783Z,2.60
2018-02-15T06:22:59.994Z,2.27
2018-02-15T06:25:26.245Z,2.33
2018-02-15T06:27:52.435Z,2.37
2018-02-15T06:30:18.810Z,2.50
2018-02-15T06:32:45.033Z,2.23
2018-02-15T06:35:11.218Z,2.50
2018-02-15T06:37:37.635Z,2.43
2018-02-15T06:40:03.826Z,2.50
2018-02-15T06:42:30.069Z,1.97
2018-02-15T06:44:56.288Z,2.63
2018-02-15T06:47:22.498Z,2.80
2018-02-15T06:49:48.758Z,2.60
2018-02-15T06:52:15.324Z,1.97
2018-02-15T06:54:41.736Z,2.30
2018-02-15T06:57:08.242Z,2.63
2018-02-15T06:59:34.509Z,1.90
2018-02-15T07:02:00.710Z,2.00
2018-02-15T07:04:26.960Z,2.10
2018-02-15T07:06:53.143Z,1.93
2018-02-15T07:09:19.351Z,2.20
2018-02-15T07:11:45.640Z,2.10
2018-02-15T07:14:11.830Z,2.40
2018-02-15T07:16:38.034Z,2.70
2018-02-15T07:19:04.292Z,3.37
2018-02-15T07:21:30.553Z,2.20
2018-02-15T07:23:57.109Z,3.67
2018-02-15T07:26:23.351Z,3.83
2018-02-15T07:28:49.875Z,3.77
2018-02-15T07:31:16.411Z,2.80
2018-02-15T07:33:42.691Z,2.63
2018-02-15T07:36:08.896Z,2.50
2018-02-15T07:38:35.097Z,3.27
2018-02-15T07:41:01.356Z,2.80
2018-02-15T07:43:27.770Z,3.13
2018-02-15T07:45:53.950Z,2.60
2018-02-15T07:48:20.345Z,2.27
2018-02-15T07:50:46.585Z,2.60
2018-02-15T07:53:12.829Z,2.60
2018-02-15T07:55:39.098Z,2.27
2018-02-15T07:58:05.323Z,2.50
2018-02-15T08:00:31.868Z,2.80
2018-02-15T08:02:58.088Z,2.47
2018-02-15T08:05:24.284Z,2.80
2018-02-15T08:07:50.513Z,2.70
2018-02-15T08:10:16.986Z,2.97
2018-02-15T08:12:43.268Z,2.63
2018-02-15T08:15:09.529Z,2.20
2018-02-15T08:17:35.715Z,3.17
2018-02-15T08:20:01.951Z,2.10
2018-02-15T08:22:28.253Z,2.40
2018-02-15T08:24:54.453Z,2.37
2018-02-15T08:27:20.629Z,2.40
2018-02-15T08:29:46.869Z,2.83
2018-02-15T08:32:13.334Z,2.40
2018-02-15T08:34:39.525Z,3.20
2018-02-15T08:37:06.105Z,2.50
2018-02-15T08:39:32.319Z,2.10
2018-02-15T08:41:58.493Z,2.33
2018-02-15T08:44:24.712Z,2.33
2018-02-15T08:46:50.891Z,2.60
2018-02-15T08:49:17.156Z,2.37
2018-02-15T08:51:43.327Z,3.00
2018-02-15T08:54:09.515Z,2.40
2018-02-15T08:56:35.944Z,3.20
2018-02-15T08:59:02.143Z,2.60
2018-02-15T09:01:28.340Z,2.70
2018-02-15T09:03:54.926Z,2.50
2018-02-15T09:06:21.143Z,2.80
2018-02-15T09:08:47.321Z,2.50
2018-02-15T09:11:13.918Z,2.93
2018-02-15T09:13:40.386Z,2.40
2018-02-15T09:16:06.602Z,2.40
2018-02-15T09:18:33.114Z,2.70
2018-02-15T09:20:59.398Z,2.27
2018-02-15T09:23:25.718Z,2.97
2018-02-15T09:25:51.962Z,2.20
2018-02-15T09:28:18.171Z,2.70
2018-02-15T09:30:44.355Z,2.60
2018-02-15T09:33:10.597Z,2.53
2018-02-15T09:35:36.785Z,2.50
2018-02-15T09:38:03.004Z,2.33
2018-02-15T09:40:29.244Z,2.40
2018-02-15T09:42:55.423Z,2.30
2018-02-15T09:45:21.655Z,2.37
2018-02-15T09:47:47.921Z,2.73
2018-02-15T09:50:14.131Z,2.63
2018-02-15T09:52:40.321Z,2.47
2018-02-15T09:55:06.593Z,2.97
2018-02-15T09:57:33.045Z,3.07
2018-02-15T09:59:59.237Z,2.43
2018-02-15T10:02:25.451Z,2.87
2018-02-15T10:04:51.960Z,2.40
2018-02-15T10:07:18.494Z,3.10
2018-02-15T10:09:44.682Z,2.70
2018-02-15T10:12:10.907Z,2.43
2018-02-15T10:14:37.380Z,3.30
2018-02-15T10:17:03.648Z,2.43
2018-02-15T10:19:29.868Z,2.90
2018-02-15T10:21:56.107Z,2.70
2018-02-15T10:24:22.354Z,2.13
2018-02-15T10:26:48.561Z,3.50
2018-02-15T10:29:15.056Z,2.90
2018-02-15T10:31:41.276Z,2.60
2018-02-15T10:34:07.499Z,2.93
2018-02-15T10:36:33.769Z,2.67
2018-02-15T10:39:00.277Z,3.10
2018-02-15T10:41:26.520Z,3.27
2018-02-15T10:43:52.782Z,2.70
2018-02-15T10:46:18.979Z,2.70
2018-02-15T10:48:45.392Z,2.93
2018-02-15T10:51:11.611Z,2.90
2018-02-15T10:53:39.196Z,3.63
2018-02-15T10:56:05.419Z,3.23
2018-02-15T10:58:31.660Z,3.20
2018-02-15T11:01:03.917Z,3.20
2018-02-15T11:03:30.163Z,3.20
2018-02-15T11:06:00.430Z,3.50
2018-02-15T11:08:26.631Z,3.50
2018-02-15T11:10:52.819Z,3.90
2018-02-15T11:13:19.099Z,3.60
2018-02-15T11:15:45.321Z,4.30
2018-02-15T11:18:11.536Z,3.20
2018-02-15T11:20:37.816Z,4.07
2018-02-15T11:23:04.474Z,3.70
2018-02-15T11:25:30.732Z,2.97
2018-02-15T11:27:56.999Z,3.53
2018-02-15T11:30:23.236Z,3.77
2018-02-15T11:32:49.422Z,3.60
2018-02-15T11:35:15.708Z,3.03
2018-02-15T11:37:41.931Z,3.00
2018-02-15T11:40:08.473Z,3.60
2018-02-15T11:42:34.727Z,3.17
2018-02-15T11:45:00.921Z,3.67
2018-02-15T11:47:27.418Z,3.10
2018-02-15T11:49:53.631Z,3.90
2018-02-15T11:52:19.835Z,3.50
2018-02-15T11:54:46.200Z,3.50
2018-02-15T11:57:12.398Z,4.03
2018-02-15T11:59:38.566Z,3.00
2018-02-15T12:02:04.807Z,3.27
2018-02-15T12:04:30.977Z,2.90
2018-02-15T12:06:57.154Z,4.33
2018-02-15T12:09:23.518Z,3.70
2018-02-15T12:11:49.715Z,4.30
2018-02-15T12:14:15.992Z,4.20
2018-02-15T12:16:42.308Z,3.87
2018-02-15T12:19:08.510Z,4.50
2018-02-15T12:21:34.966Z,4.00
2018-02-15T12:24:01.242Z,4.53
2018-02-15T12:26:27.708Z,3.90
2018-02-15T12:28:53.979Z,3.60
2018-02-15T12:31:20.190Z,3.10
2018-02-15T12:33:46.378Z,3.93
2018-02-15T12:36:12.627Z,4.40
2018-02-15T12:38:38.851Z,3.73
2018-02-15T12:41:05.406Z,3.90
2018-02-15T12:43:31.648Z,4.00
2018-02-15T12:45:57.937Z,4.83
2018-02-15T12:48:24.503Z,4.17
2018-02-15T12:50:50.772Z,3.73
2018-02-15T12:53:17.010Z,3.50
2018-02-15T12:55:43.210Z,3.50
2018-02-15T12:58:09.483Z,4.30
2018-02-15T13:00:35.705Z,3.70
2018-02-15T13:03:01.955Z,4.00
2018-02-15T13:05:28.231Z,3.93
2018-02-15T13:07:54.427Z,4.07
2018-02-15T13:10:20.659Z,4.20
2018-02-15T13:12:59.179Z,4.57
2018-02-15T13:15:37.698Z,4.30
2018-02-15T13:18:03.970Z,4.57
2018-02-15T13:20:30.189Z,4.10
2018-02-15T13:22:56.782Z,4.30
2018-02-15T13:25:23.031Z,3.60
2018-02-15T13:28:01.548Z,3.40
2018-02-15T13:30:27.810Z,4.00
2018-02-15T13:32:54.290Z,4.30
2018-02-15T13:35:20.827Z,4.00
2018-02-15T13:40:23.044Z,4.10
2018-02-15T13:42:49.313Z,3.70
2018-02-15T13:45:15.523Z,4.13
2018-02-15T13:47:41.725Z,3.67
2018-02-15T13:50:08.073Z,3.60
2018-02-15T13:52:34.303Z,4.13
2018-02-15T13:55:00.586Z,3.70
2018-02-15T13:57:26.841Z,3.97
2018-02-15T13:59:53.030Z,4.07
2018-02-15T14:02:19.207Z,4.70
2018-02-15T14:04:45.523Z,4.07
2018-02-15T14:07:11.800Z,4.60
2018-02-15T14:09:37.994Z,4.47
2018-02-15T14:12:04.180Z,4.50
2018-02-15T14:14:30.921Z,4.20
2018-02-15T14:16:57.131Z,4.33
2018-02-15T14:19:23.310Z,3.97
2018-02-15T14:21:49.579Z,3.87
2018-02-15T14:24:16.032Z,3.87
2018-02-15T14:26:42.368Z,3.97
2018-02-15T14:29:08.700Z,3.70
2018-02-15T14:31:35.100Z,4.20
2018-02-15T14:34:01.293Z,3.60
2018-02-15T14:36:27.558Z,4.43
2018-02-15T14:38:53.749Z,3.70
2018-02-15T14:41:19.956Z,4.10
2018-02-15T14:43:46.166Z,3.40
2018-02-15T14:46:12.422Z,3.47
2018-02-15T14:48:38.864Z,4.03
2018-02-15T14:51:05.063Z,4.17
2018-02-15T14:53:31.372Z,3.60
2018-02-15T14:55:57.567Z,3.70
2018-02-15T14:58:23.794Z,3.93
2018-02-15T15:00:50.081Z,3.80
2018-02-15T15:03:16.282Z,3.77
2018-02-15T15:05:42.843Z,3.90
2018-02-15T15:08:09.374Z,3.70
2018-02-15T15:10:35.582Z,4.30
2018-02-15T15:13:01.785Z,3.50
2018-02-15T15:15:28.073Z,3.70
2018-02-15T15:17:54.314Z,3.53
2018-02-15T15:20:20.533Z,3.60
2018-02-15T15:22:46.968Z,4.77
2018-02-15T15:25:13.439Z,4.17
2018-02-15T15:27:39.692Z,3.50
2018-02-15T15:30:05.941Z,3.47
2018-02-15T15:32:32.473Z,3.93
2018-02-15T15:34:58.694Z,3.80
2018-02-15T15:37:24.927Z,4.00
2018-02-15T15:39:51.354Z,4.10
2018-02-15T15:42:17.582Z,4.03
2018-02-15T15:44:43.786Z,3.97
2018-02-15T15:47:09.998Z,4.00
2018-02-15T15:49:36.242Z,3.50
2018-02-15T15:52:02.473Z,4.00
2018-02-15T15:54:28.649Z,3.27
2018-02-15T15:56:54.881Z,3.57
2018-02-15T15:59:21.302Z,3.63
2018-02-15T16:01:47.822Z,3.70
2018-02-15T16:04:14.011Z,3.10
2018-02-15T16:06:40.474Z,3.60
2018-02-15T16:09:06.701Z,3.77
2018-02-15T16:11:32.888Z,3.47
2018-02-15T16:13:59.077Z,3.80
2018-02-15T16:16:25.340Z,4.03
2018-02-15T16:18:51.559Z,3.77
2018-02-15T16:21:17.956Z,3.80
2018-02-15T16:23:44.205Z,4.37
2018-02-15T16:26:10.430Z,3.67
2018-02-15T16:28:36.632Z,3.73
2018-02-15T16:31:02.918Z,2.97
2018-02-15T16:33:29.100Z,3.83
2018-02-15T16:35:55.261Z,3.60
2018-02-15T16:38:21.607Z,3.07
2018-02-15T16:40:47.830Z,3.50
2018-02-15T16:43:14.323Z,3.60
2018-02-15T16:45:40.571Z,3.00
2018-02-15T16:48:06.819Z,3.73
2018-02-15T16:50:33.021Z,3.63
2018-02-15T16:52:59.226Z,3.83
2018-02-15T16:55:25.445Z,3.10
2018-02-15T16:57:51.642Z,3.23
2018-02-15T17:00:17.912Z,3.30
2018-02-15T17:02:44.166Z,3.30
2018-02-15T17:05:10.385Z,2.80
2018-02-15T17:07:36.646Z,3.90
2018-02-15T17:10:02.888Z,3.37
2018-02-15T17:12:29.093Z,3.30
2018-02-15T17:14:55.368Z,3.50
2018-02-15T17:17:21.923Z,3.37
2018-02-15T17:19:48.131Z,3.13
2018-02-15T17:22:14.384Z,3.53
2018-02-15T17:24:40.605Z,3.13
2018-02-15T17:27:06.853Z,3.27
2018-02-15T17:29:33.135Z,3.20
2018-02-15T17:31:59.568Z,3.73
2018-02-15T17:34:26.000Z,2.90
2018-02-15T17:36:52.255Z,3.50
2018-02-15T17:39:24.372Z,3.03
2018-02-15T17:41:50.568Z,2.87
2018-02-15T17:44:16.872Z,3.20
2018-02-15T17:46:43.123Z,2.90
2018-02-15T17:49:09.335Z,3.40
2018-02-15T17:51:35.534Z,3.47
2018-02-15T17:54:01.781Z,3.23
2018-02-15T17:56:28.331Z,3.30
2018-02-15T17:58:54.594Z,3.37
2018-02-15T18:01:20.839Z,3.43
2018-02-15T18:03:47.068Z,3.57
2018-02-15T18:06:13.293Z,3.10
2018-02-15T18:08:39.493Z,3.10
2018-02-15T18:11:05.764Z,3.87
2018-02-15T18:13:31.975Z,3.77
2018-02-15T18:15:58.164Z,3.67
2018-02-15T18:18:24.424Z,3.80
2018-02-15T18:20:50.630Z,2.73
2018-02-15T18:23:17.155Z,2.67
2018-02-15T18:25:43.408Z,3.47
2018-02-15T18:28:09.699Z,3.50
2018-02-15T18:30:35.950Z,3.60
2018-02-15T18:33:02.210Z,3.50
2018-02-15T18:35:28.391Z,2.90
2018-02-15T18:37:54.640Z,3.10
2018-02-15T18:40:20.862Z,3.03
2018-02-15T18:42:47.065Z,3.07
2018-02-15T18:45:13.306Z,3.00
2018-02-15T18:47:39.520Z,2.97
2018-02-15T18:50:05.720Z,2.50
2018-02-15T18:52:31.911Z,3.50
2018-02-15T18:54:58.105Z,3.47
2018-02-15T18:57:24.654Z,3.50
2018-02-15T18:59:50.854Z,4.13
2018-02-15T19:02:17.028Z,3.40
2018-02-15T19:04:43.269Z,3.13
2018-02-15T19:07:09.474Z,3.30
2018-02-15T19:09:35.734Z,3.57
2018-02-15T19:12:02.223Z,4.10
2018-02-15T19:14:28.437Z,3.70
2018-02-15T19:16:54.693Z,3.03
2018-02-15T19:19:20.911Z,3.33
2018-02-15T19:21:47.314Z,3.67
2018-02-15T19:24:13.540Z,3.30
2018-02-15T19:26:40.015Z,3.40
2018-02-15T19:29:06.203Z,4.10
2018-02-15T19:31:32.426Z,4.10
2018-02-15T19:33:58.649Z,4.03
2018-02-15T19:36:24.854Z,4.23
2018-02-15T19:38:51.044Z,5.10
2018-02-15T19:41:17.274Z,3.53
2018-02-15T19:43:43.808Z,3.30
2018-02-15T19:46:10.026Z,3.57
2018-02-15T19:48:36.488Z,3.63
2018-02-15T19:51:02.668Z,3.00
2018-02-15T19:53:28.865Z,3.80
2018-02-15T19:55:55.083Z,3.77
2018-02-15T19:58:21.332Z,4.67
2018-02-15T20:00:47.552Z,3.30
2018-02-15T20:03:13.767Z,3.63
2018-02-15T20:05:40.102Z,3.67
2018-02-15T20:08:06.316Z,4.07
2018-02-15T20:10:32.743Z,3.80
2018-02-15T20:12:59.004Z,3.67
2018-02-15T20:15:31.339Z,3.50
2018-02-15T20:17:57.513Z,4.20
2018-02-15T20:20:23.762Z,3.20
2018-02-15T20:22:50.030Z,3.47
2018-02-15T20:25:16.239Z,3.40
2018-02-15T20:27:48.338Z,3.40
2018-02-15T20:30:14.634Z,3.67
2018-02-15T20:32:40.872Z,3.33
2018-02-15T20:35:07.161Z,3.37
2018-02-15T20:40:39.772Z,2.97
2018-02-15T20:43:05.977Z,2.93
2018-02-15T20:45:32.164Z,3.13
2018-02-15T20:47:58.677Z,3.60
2018-02-15T20:50:30.813Z,3.20
2018-02-15T20:53:02.986Z,3.60
2018-02-15T20:55:35.283Z,3.40
2018-02-15T20:58:01.501Z,3.13
2018-02-15T21:00:27.761Z,3.73
2018-02-15T21:02:53.969Z,3.70
2018-02-15T21:05:20.151Z,3.70
2018-02-15T21:07:46.402Z,4.03
2018-02-15T21:10:12.605Z,3.17
2018-02-15T21:12:38.818Z,3.20
2018-02-15T21:15:05.087Z,3.17
2018-02-15T21:17:31.294Z,4.00
2018-02-15T21:19:57.485Z,3.90
2018-02-15T21:22:23.714Z,2.90
2018-02-15T21:24:49.970Z,3.43
2018-02-15T21:27:16.159Z,3.60
2018-02-15T21:29:42.342Z,3.47
2018-02-15T21:32:08.594Z,3.53
2018-02-15T21:34:34.858Z,3.23
2018-02-15T21:37:01.044Z,3.10
2018-02-15T21:39:27.594Z,4.00
2018-02-15T21:41:53.848Z,3.47
2018-02-15T21:44:20.027Z,3.83
2018-02-15T21:46:46.223Z,3.60
2018-02-15T21:49:12.494Z,3.40
2018-02-15T21:51:38.700Z,3.37
2018-02-15T21:54:04.907Z,3.53
2018-02-15T21:56:31.164Z,3.90
2018-02-15T21:58:57.356Z,3.03
2018-02-15T22:01:23.550Z,3.67
2018-02-15T22:03:49.782Z,3.60
2018-02-15T22:06:15.997Z,3.93
2018-02-15T22:08:42.537Z,3.40
2018-02-15T22:11:09.069Z,3.70
2018-02-15T22:13:35.264Z,3.80
2018-02-15T22:16:01.452Z,3.40
2018-02-15T22:18:27.712Z,3.43
2018-02-15T22:20:53.940Z,4.43
2018-02-15T22:23:20.141Z,3.53
2018-02-15T22:25:46.375Z,3.77
2018-02-15T22:28:12.563Z,3.50
2018-02-15T22:30:38.740Z,3.30
2018-02-15T22:33:05.033Z,3.40
2018-02-15T22:35:31.247Z,3.20
2018-02-15T22:37:57.659Z,3.50
2018-02-15T22:40:23.911Z,3.30
2018-02-15T22:42:50.143Z,3.23
2018-02-15T22:45:16.386Z,3.20
2018-02-15T22:47:42.608Z,3.40
2018-02-15T22:50:08.806Z,3.20
2018-02-15T22:52:34.977Z,2.87
2018-02-15T22:55:01.473Z,3.33
2018-02-15T22:57:27.920Z,3.83
2018-02-15T22:59:54.131Z,3.23
2018-02-15T23:02:20.369Z,3.30
2018-02-15T23:04:46.565Z,3.30
2018-02-15T23:07:12.846Z,3.23
2018-02-15T23:09:39.059Z,3.17
2018-02-15T23:12:05.234Z,3.20
2018-02-15T23:14:31.515Z,3.80
2018-02-15T23:16:57.710Z,2.70
2018-02-15T23:19:24.151Z,3.20
2018-02-15T23:21:50.399Z,3.27
2018-02-15T23:24:16.584Z,2.90
2018-02-15T23:26:42.761Z,3.10
2018-02-15T23:29:09.008Z,3.57
2018-02-15T23:31:35.202Z,3.10
2018-02-15T23:34:01.442Z,3.30
2018-02-15T23:36:27.978Z,3.10
2018-02-15T23:38:54.236Z,2.60
2018-02-15T23:41:20.462Z,3.10
2018-02-15T23:43:46.677Z,3.50
2018-02-15T23:46:12.871Z,2.63
2018-02-15T23:48:39.175Z,2.67
2018-02-15T23:51:05.374Z,2.90
2018-02-15T23:53:31.590Z,2.60
2018-02-15T23:55:57.828Z,2.80
2018-02-15T23:58:24.030Z,3.17
